Terminal Aerodrome Forecast
Issued by NWS Charleston, WV

Current Version | Previous Version | Graphics & Text | Print | Product List | Glossary On
Versions: 1 2 3 4 5 6 7 8 9 10 11 12 13 14 15 16 17 18 19 20 21 22 23 24
000
FTUS41 KRLX 061700 RRA
TAFPKB
TAF
KPKB 061744Z 0618/0718 22002KT P6SM SCT020
     FM062300 VRB02KT P6SM SCT200
     FM070700 21002KT P6SM BKN150
     FM071200 24005KT P6SM BKN080=

USA.gov is the U.S. government's official web portal to all federal, state and local government web resources and services.